FIN1EH EFHK-EDDM
Flight info
| Callsign | FIN1EH |
|---|---|
| Flight time | N/A |
| Altitude | 40000 |
| Route | VALOX4N/22R VALOX Y117 ROSAX DCT PIMEX P739 DEREX DCT ANFEV DCT PENOR DCT DOSAL DCT GOVEN DCT KOBUS DCT MAREM DCT VESUB T106 TUSTO T108 LANDU LANDU2B |
| Aircraft | A359/H-SDE2E3GHIJ3J4J5LM1ORWXY/LB1D1 |
Departure
| Time | N/A |
|---|---|
| Airport | Helsinki Vantaa Airport (EFHK) |
Arrival
| Time | 2026-05-03 21:39 |
|---|---|
| Airport | Munich Airport (EDDM) |
| Time | Latitude | Longitude | Altitude | Speed | Heading |
|---|---|---|---|---|---|
| 2026-05-03 20:15 | 56.93297 | 18.99967 | 39864 ft | 449 kts | 224° |
| 2026-05-03 20:15 | 56.88580 | 18.92470 | 39867 ft | 449 kts | 224° |
| 2026-05-03 20:16 | 56.83860 | 18.84991 | 39868 ft | 449 kts | 224° |
| 2026-05-03 20:16 | 56.79137 | 18.77535 | 39872 ft | 449 kts | 224° |
| 2026-05-03 20:17 | 56.75193 | 18.71328 | 39863 ft | 450 kts | 224° |
| 2026-05-03 20:17 | 56.70447 | 18.63882 | 39872 ft | 450 kts | 224° |
| 2026-05-03 20:18 | 56.65694 | 18.56451 | 39870 ft | 451 kts | 224° |
| 2026-05-03 20:18 | 56.60936 | 18.49039 | 39871 ft | 450 kts | 223° |
| 2026-05-03 20:19 | 56.56174 | 18.41646 | 39872 ft | 450 kts | 223° |
| 2026-05-03 20:19 | 56.51406 | 18.34266 | 39873 ft | 451 kts | 223° |
| 2026-05-03 20:20 | 56.46628 | 18.26894 | 39873 ft | 452 kts | 223° |
| 2026-05-03 20:20 | 56.41847 | 18.19529 | 39881 ft | 452 kts | 223° |
| 2026-05-03 20:21 | 56.37058 | 18.12187 | 39884 ft | 452 kts | 223° |
| 2026-05-03 20:21 | 56.32262 | 18.04866 | 39866 ft | 451 kts | 223° |
| 2026-05-03 20:22 | 56.27461 | 17.97564 | 39893 ft | 452 kts | 223° |
| 2026-05-03 20:22 | 56.22651 | 17.90272 | 39878 ft | 452 kts | 223° |
| 2026-05-03 20:23 | 56.17835 | 17.82997 | 39886 ft | 452 kts | 223° |
| 2026-05-03 20:23 | 56.13014 | 17.75740 | 39888 ft | 452 kts | 223° |
| 2026-05-03 20:24 | 56.08187 | 17.68496 | 39888 ft | 453 kts | 223° |
| 2026-05-03 20:24 | 56.03350 | 17.61262 | 39888 ft | 453 kts | 223° |
| 2026-05-03 20:25 | 55.98506 | 17.54042 | 39889 ft | 453 kts | 223° |
| 2026-05-03 20:25 | 55.93659 | 17.46843 | 39889 ft | 453 kts | 222° |
| 2026-05-03 20:26 | 55.88806 | 17.39659 | 39888 ft | 453 kts | 222° |
| 2026-05-03 20:26 | 55.83948 | 17.32491 | 39888 ft | 454 kts | 222° |
| 2026-05-03 20:27 | 55.78896 | 17.25723 | 39895 ft | 458 kts | 213° |
| 2026-05-03 20:27 | 55.73036 | 17.21164 | 39897 ft | 463 kts | 202° |
| 2026-05-03 20:28 | 55.66894 | 17.17661 | 39901 ft | 464 kts | 200° |
| 2026-05-03 20:28 | 55.60933 | 17.13603 | 39901 ft | 461 kts | 207° |
| 2026-05-03 20:29 | 55.55113 | 17.08882 | 39899 ft | 460 kts | 208° |
| 2026-05-03 20:29 | 55.49327 | 17.04035 | 39900 ft | 460 kts | 208° |
| 2026-05-03 20:30 | 55.43546 | 16.99196 | 39903 ft | 460 kts | 208° |
| 2026-05-03 20:30 | 55.37756 | 16.94387 | 39894 ft | 460 kts | 208° |
| 2026-05-03 20:31 | 55.31925 | 16.89570 | 39904 ft | 460 kts | 208° |
| 2026-05-03 20:31 | 55.26169 | 16.84833 | 39902 ft | 460 kts | 208° |
| 2026-05-03 20:32 | 55.20373 | 16.80078 | 39904 ft | 460 kts | 208° |
| 2026-05-03 20:32 | 55.14574 | 16.75336 | 39901 ft | 460 kts | 207° |
| 2026-05-03 20:33 | 55.08775 | 16.70609 | 39903 ft | 460 kts | 207° |
| 2026-05-03 20:33 | 55.02971 | 16.65892 | 39906 ft | 460 kts | 207° |
| 2026-05-03 20:34 | 54.97167 | 16.61191 | 39905 ft | 460 kts | 207° |
| 2026-05-03 20:34 | 54.91361 | 16.56503 | 39903 ft | 460 kts | 207° |
| 2026-05-03 20:35 | 54.85554 | 16.51829 | 39900 ft | 460 kts | 207° |
| 2026-05-03 20:35 | 54.79743 | 16.47167 | 39900 ft | 460 kts | 207° |
| 2026-05-03 20:36 | 54.73930 | 16.42518 | 39904 ft | 460 kts | 207° |
| 2026-05-03 20:36 | 54.68117 | 16.37884 | 39900 ft | 460 kts | 207° |
| 2026-05-03 20:37 | 54.62301 | 16.33262 | 39896 ft | 460 kts | 207° |
| 2026-05-03 20:37 | 54.56488 | 16.28657 | 39897 ft | 460 kts | 207° |
| 2026-05-03 20:38 | 54.50672 | 16.24064 | 39895 ft | 460 kts | 207° |
| 2026-05-03 20:38 | 54.44853 | 16.19492 | 39895 ft | 460 kts | 207° |
| 2026-05-03 20:39 | 54.39028 | 16.14928 | 39897 ft | 461 kts | 207° |
| 2026-05-03 20:39 | 54.33194 | 16.10368 | 39895 ft | 461 kts | 207° |
| 2026-05-03 20:40 | 54.27356 | 16.05818 | 39891 ft | 461 kts | 207° |
| 2026-05-03 20:40 | 54.21516 | 16.01280 | 39893 ft | 461 kts | 207° |
| 2026-05-03 20:41 | 54.15671 | 15.96751 | 39893 ft | 462 kts | 206° |
| 2026-05-03 20:41 | 54.09819 | 15.92229 | 39892 ft | 462 kts | 206° |
| 2026-05-03 20:42 | 54.03963 | 15.87720 | 39895 ft | 462 kts | 206° |
| 2026-05-03 20:42 | 53.98083 | 15.83311 | 39894 ft | 462 kts | 206° |
| 2026-05-03 20:43 | 53.92234 | 15.78789 | 39895 ft | 462 kts | 207° |
| 2026-05-03 20:43 | 53.86384 | 15.74277 | 39895 ft | 462 kts | 206° |
| 2026-05-03 20:44 | 53.80524 | 15.69804 | 39892 ft | 462 kts | 206° |
| 2026-05-03 20:44 | 53.74660 | 15.65357 | 39892 ft | 462 kts | 206° |
| 2026-05-03 20:45 | 53.68792 | 15.60922 | 39894 ft | 462 kts | 206° |
| 2026-05-03 20:45 | 53.62923 | 15.56500 | 39894 ft | 462 kts | 206° |
| 2026-05-03 20:46 | 53.57055 | 15.52091 | 39895 ft | 462 kts | 206° |
| 2026-05-03 20:46 | 53.51183 | 15.47692 | 39889 ft | 462 kts | 206° |
| 2026-05-03 20:47 | 53.45306 | 15.43302 | 39892 ft | 463 kts | 206° |
| 2026-05-03 20:47 | 53.39360 | 15.39140 | 39894 ft | 465 kts | 200° |
| 2026-05-03 20:48 | 53.33186 | 15.35915 | 39894 ft | 465 kts | 199° |
| 2026-05-03 20:48 | 53.26966 | 15.32890 | 39895 ft | 465 kts | 198° |
| 2026-05-03 20:49 | 53.20741 | 15.29895 | 39889 ft | 466 kts | 198° |
| 2026-05-03 20:49 | 53.14511 | 15.26887 | 39890 ft | 466 kts | 198° |
| 2026-05-03 20:50 | 53.08284 | 15.23877 | 39890 ft | 466 kts | 198° |
| 2026-05-03 20:50 | 53.02056 | 15.20873 | 39891 ft | 466 kts | 198° |
| 2026-05-03 20:51 | 52.95825 | 15.17875 | 39899 ft | 466 kts | 198° |
| 2026-05-03 20:51 | 52.89595 | 15.14888 | 39897 ft | 466 kts | 198° |
| 2026-05-03 20:52 | 52.83353 | 15.11905 | 39896 ft | 466 kts | 198° |
| 2026-05-03 20:52 | 52.77119 | 15.08934 | 39884 ft | 466 kts | 198° |
| 2026-05-03 20:53 | 52.70878 | 15.05968 | 39896 ft | 467 kts | 198° |
| 2026-05-03 20:53 | 52.64636 | 15.03011 | 39901 ft | 467 kts | 198° |
| 2026-05-03 20:54 | 52.58392 | 15.00063 | 39904 ft | 467 kts | 198° |
| 2026-05-03 20:54 | 52.49024 | 14.95654 | 39908 ft | 467 kts | 198° |
| 2026-05-03 20:55 | 52.42779 | 14.92726 | 39901 ft | 467 kts | 198° |
| 2026-05-03 20:55 | 52.36533 | 14.89807 | 39910 ft | 467 kts | 198° |
| 2026-05-03 20:56 | 52.30285 | 14.86895 | 39905 ft | 467 kts | 198° |
| 2026-05-03 20:56 | 52.24038 | 14.83992 | 39911 ft | 467 kts | 198° |
| 2026-05-03 20:57 | 52.17795 | 14.81099 | 39913 ft | 466 kts | 198° |
| 2026-05-03 20:57 | 52.11550 | 14.78214 | 39910 ft | 466 kts | 198° |
| 2026-05-03 20:58 | 52.06416 | 14.75577 | 39902 ft | 465 kts | 204° |
| 2026-05-03 20:58 | 52.00668 | 14.70836 | 39907 ft | 463 kts | 211° |
| 2026-05-03 20:59 | 51.95072 | 14.65643 | 39914 ft | 463 kts | 212° |
| 2026-05-03 20:59 | 51.89633 | 14.60520 | 39910 ft | 463 kts | 211° |
| 2026-05-03 21:00 | 51.84992 | 14.56184 | 39913 ft | 463 kts | 211° |
| 2026-05-03 21:00 | 51.78452 | 14.50127 | 39920 ft | 464 kts | 211° |
| 2026-05-03 21:01 | 51.72846 | 14.44963 | 39916 ft | 464 kts | 211° |
| 2026-05-03 21:01 | 51.67238 | 14.39811 | 39921 ft | 464 kts | 211° |
| 2026-05-03 21:02 | 51.61627 | 14.34671 | 39919 ft | 464 kts | 211° |
| 2026-05-03 21:02 | 51.56014 | 14.29543 | 39922 ft | 464 kts | 211° |
| 2026-05-03 21:03 | 51.50401 | 14.24432 | 39923 ft | 464 kts | 211° |
| 2026-05-03 21:03 | 51.44652 | 14.19700 | 39922 ft | 465 kts | 207° |
| 2026-05-03 21:04 | 51.38820 | 14.15225 | 39930 ft | 465 kts | 207° |
| 2026-05-03 21:04 | 51.32999 | 14.10718 | 39933 ft | 465 kts | 207° |
| 2026-05-03 21:05 | 51.27193 | 14.06161 | 39936 ft | 465 kts | 207° |
| 2026-05-03 21:05 | 51.21392 | 14.01595 | 39937 ft | 465 kts | 207° |
| 2026-05-03 21:06 | 51.15586 | 13.97036 | 39939 ft | 466 kts | 207° |
| 2026-05-03 21:06 | 51.09803 | 13.92513 | 39463 ft | 459 kts | 207° |
| 2026-05-03 21:07 | 51.06936 | 13.90276 | 38885 ft | 459 kts | 207° |
| 2026-05-03 21:07 | 51.04075 | 13.88046 | 38234 ft | 457 kts | 207° |
| 2026-05-03 21:07 | 51.01221 | 13.85825 | 37495 ft | 457 kts | 207° |
| 2026-05-03 21:07 | 50.98366 | 13.83606 | 36702 ft | 457 kts | 207° |
| 2026-05-03 21:08 | 50.95503 | 13.81384 | 35919 ft | 458 kts | 207° |
| 2026-05-03 21:08 | 50.92637 | 13.79163 | 35145 ft | 459 kts | 207° |
| 2026-05-03 21:08 | 50.89764 | 13.76939 | 34461 ft | 460 kts | 207° |
| 2026-05-03 21:08 | 50.86878 | 13.74708 | 34055 ft | 464 kts | 207° |
| 2026-05-03 21:09 | 50.83960 | 13.72455 | 33953 ft | 467 kts | 207° |
| 2026-05-03 21:09 | 50.81035 | 13.70201 | 33953 ft | 468 kts | 207° |
| 2026-05-03 21:09 | 50.75181 | 13.65699 | 33954 ft | 468 kts | 207° |
| 2026-05-03 21:10 | 50.69161 | 13.61752 | 33959 ft | 470 kts | 200° |
| 2026-05-03 21:10 | 50.62940 | 13.58534 | 33958 ft | 471 kts | 199° |
| 2026-05-03 21:11 | 50.56691 | 13.55450 | 33960 ft | 471 kts | 199° |
| 2026-05-03 21:11 | 50.50442 | 13.52374 | 33963 ft | 471 kts | 199° |
| 2026-05-03 21:12 | 50.44182 | 13.49280 | 33947 ft | 472 kts | 199° |
| 2026-05-03 21:12 | 50.37918 | 13.46183 | 33965 ft | 472 kts | 199° |
| 2026-05-03 21:13 | 50.31659 | 13.43095 | 33948 ft | 472 kts | 199° |
| 2026-05-03 21:13 | 50.25399 | 13.40016 | 33957 ft | 472 kts | 199° |
| 2026-05-03 21:14 | 50.19133 | 13.36944 | 33948 ft | 472 kts | 199° |
| 2026-05-03 21:14 | 50.12873 | 13.33883 | 33944 ft | 472 kts | 199° |
| 2026-05-03 21:15 | 50.06605 | 13.30827 | 33851 ft | 471 kts | 199° |
| 2026-05-03 21:15 | 50.03494 | 13.29314 | 33167 ft | 467 kts | 199° |
| 2026-05-03 21:15 | 50.00389 | 13.27806 | 32292 ft | 468 kts | 199° |
| 2026-05-03 21:16 | 49.97270 | 13.26291 | 31355 ft | 470 kts | 199° |
| 2026-05-03 21:16 | 49.94139 | 13.24772 | 30422 ft | 473 kts | 199° |
| 2026-05-03 21:16 | 49.90993 | 13.23248 | 29435 ft | 475 kts | 198° |
| 2026-05-03 21:16 | 49.87847 | 13.21727 | 28559 ft | 472 kts | 198° |
| 2026-05-03 21:17 | 49.84725 | 13.20220 | 27827 ft | 468 kts | 198° |
| 2026-05-03 21:17 | 49.82672 | 13.19231 | 27362 ft | 465 kts | 198° |
| 2026-05-03 21:17 | 49.78581 | 13.17262 | 26499 ft | 458 kts | 198° |
| 2026-05-03 21:17 | 49.75553 | 13.15806 | 25839 ft | 454 kts | 198° |
| 2026-05-03 21:18 | 49.72557 | 13.14368 | 25212 ft | 449 kts | 198° |
| 2026-05-03 21:18 | 49.69587 | 13.12944 | 24573 ft | 444 kts | 198° |
| 2026-05-03 21:18 | 49.66651 | 13.11537 | 23924 ft | 440 kts | 198° |
| 2026-05-03 21:18 | 49.63740 | 13.10144 | 23256 ft | 436 kts | 198° |
| 2026-05-03 21:19 | 49.60863 | 13.08770 | 22566 ft | 431 kts | 198° |
| 2026-05-03 21:19 | 49.58018 | 13.07412 | 21903 ft | 425 kts | 198° |
| 2026-05-03 21:19 | 49.55214 | 13.06076 | 21231 ft | 420 kts | 198° |
| 2026-05-03 21:19 | 49.52440 | 13.04757 | 20558 ft | 415 kts | 198° |
| 2026-05-03 21:20 | 49.49697 | 13.03453 | 19920 ft | 410 kts | 198° |
| 2026-05-03 21:20 | 49.46989 | 13.02167 | 19278 ft | 405 kts | 198° |
| 2026-05-03 21:20 | 49.44314 | 13.00897 | 18627 ft | 400 kts | 198° |
| 2026-05-03 21:20 | 49.41707 | 12.99470 | 17977 ft | 396 kts | 203° |
| 2026-05-03 21:21 | 49.39196 | 12.97797 | 17231 ft | 392 kts | 205° |
| 2026-05-03 21:21 | 49.36727 | 12.96051 | 16460 ft | 389 kts | 205° |
| 2026-05-03 21:21 | 49.34291 | 12.94275 | 15737 ft | 386 kts | 206° |
| 2026-05-03 21:21 | 49.31912 | 12.92521 | 15035 ft | 383 kts | 206° |
| 2026-05-03 21:22 | 49.29487 | 12.90732 | 14335 ft | 380 kts | 206° |
| 2026-05-03 21:22 | 49.27109 | 12.88986 | 13620 ft | 378 kts | 206° |
| 2026-05-03 21:22 | 49.24780 | 12.87284 | 12861 ft | 375 kts | 205° |
| 2026-05-03 21:22 | 49.22432 | 12.85574 | 12061 ft | 373 kts | 205° |
| 2026-05-03 21:23 | 49.20089 | 12.83879 | 11379 ft | 371 kts | 205° |
| 2026-05-03 21:23 | 49.17766 | 12.82196 | 11035 ft | 369 kts | 205° |
| 2026-05-03 21:23 | 49.15445 | 12.80513 | 10950 ft | 370 kts | 205° |
| 2026-05-03 21:23 | 49.13342 | 12.78989 | 10950 ft | 370 kts | 205° |
| 2026-05-03 21:24 | 49.11017 | 12.77300 | 10957 ft | 370 kts | 205° |
| 2026-05-03 21:24 | 49.08755 | 12.75470 | 10847 ft | 367 kts | 210° |
| 2026-05-03 21:24 | 49.06599 | 12.73491 | 10657 ft | 354 kts | 211° |
| 2026-05-03 21:24 | 49.04547 | 12.71567 | 10414 ft | 340 kts | 211° |
| 2026-05-03 21:25 | 49.02577 | 12.69702 | 10169 ft | 327 kts | 211° |
| 2026-05-03 21:25 | 49.00687 | 12.67904 | 9938 ft | 315 kts | 211° |
| 2026-05-03 21:25 | 48.98863 | 12.66165 | 9674 ft | 305 kts | 211° |
| 2026-05-03 21:25 | 48.97066 | 12.64451 | 9425 ft | 305 kts | 211° |
| 2026-05-03 21:26 | 48.95269 | 12.62736 | 9165 ft | 304 kts | 211° |
| 2026-05-03 21:26 | 48.93478 | 12.61026 | 8919 ft | 304 kts | 211° |
| 2026-05-03 21:26 | 48.91690 | 12.59320 | 8651 ft | 303 kts | 211° |
| 2026-05-03 21:26 | 48.89909 | 12.57621 | 8394 ft | 302 kts | 211° |
| 2026-05-03 21:27 | 48.88130 | 12.55926 | 8154 ft | 301 kts | 211° |
| 2026-05-03 21:27 | 48.86360 | 12.54240 | 7963 ft | 300 kts | 211° |
| 2026-05-03 21:27 | 48.84593 | 12.52559 | 7853 ft | 300 kts | 211° |
| 2026-05-03 21:27 | 48.82825 | 12.50878 | 7704 ft | 300 kts | 211° |
| 2026-05-03 21:28 | 48.81051 | 12.49193 | 7603 ft | 301 kts | 211° |
| 2026-05-03 21:28 | 48.79280 | 12.47512 | 7473 ft | 300 kts | 212° |
| 2026-05-03 21:28 | 48.77511 | 12.45835 | 7349 ft | 300 kts | 211° |
| 2026-05-03 21:28 | 48.75746 | 12.44162 | 7227 ft | 299 kts | 211° |
| 2026-05-03 21:29 | 48.73979 | 12.42489 | 7113 ft | 300 kts | 211° |
| 2026-05-03 21:29 | 48.72213 | 12.40819 | 6881 ft | 299 kts | 212° |
| 2026-05-03 21:29 | 48.70484 | 12.39185 | 6713 ft | 286 kts | 212° |
| 2026-05-03 21:29 | 48.68828 | 12.37620 | 6513 ft | 276 kts | 212° |
| 2026-05-03 21:30 | 48.67225 | 12.36107 | 6326 ft | 266 kts | 212° |
| 2026-05-03 21:30 | 48.65662 | 12.34633 | 6195 ft | 265 kts | 212° |
| 2026-05-03 21:30 | 48.64095 | 12.33157 | 6072 ft | 265 kts | 212° |
| 2026-05-03 21:30 | 48.62526 | 12.31680 | 5945 ft | 266 kts | 212° |
| 2026-05-03 21:31 | 48.60951 | 12.30199 | 5826 ft | 266 kts | 213° |
| 2026-05-03 21:31 | 48.59380 | 12.28722 | 5701 ft | 266 kts | 213° |
| 2026-05-03 21:31 | 48.57811 | 12.27247 | 5579 ft | 266 kts | 213° |
| 2026-05-03 21:31 | 48.56238 | 12.25771 | 5453 ft | 266 kts | 214° |
| 2026-05-03 21:32 | 48.54672 | 12.24298 | 5319 ft | 265 kts | 213° |
| 2026-05-03 21:32 | 48.53105 | 12.22829 | 5213 ft | 265 kts | 213° |
| 2026-05-03 21:32 | 48.51547 | 12.21368 | 5091 ft | 264 kts | 213° |
| 2026-05-03 21:32 | 48.49985 | 12.19907 | 4977 ft | 264 kts | 213° |
| 2026-05-03 21:33 | 48.48424 | 12.18448 | 4970 ft | 264 kts | 213° |
| 2026-05-03 21:33 | 48.46865 | 12.16994 | 4954 ft | 263 kts | 214° |
| 2026-05-03 21:33 | 48.45322 | 12.15554 | 4667 ft | 257 kts | 214° |
| 2026-05-03 21:33 | 48.43901 | 12.14227 | 4386 ft | 252 kts | 214° |
| 2026-05-03 21:34 | 48.42436 | 12.12861 | 4210 ft | 242 kts | 214° |
| 2026-05-03 21:34 | 48.41034 | 12.11557 | 4067 ft | 232 kts | 214° |
| 2026-05-03 21:34 | 48.39723 | 12.10262 | 3960 ft | 216 kts | 224° |
| 2026-05-03 21:34 | 48.38944 | 12.08508 | 3987 ft | 191 kts | 248° |
| 2026-05-03 21:35 | 48.38606 | 12.06707 | 3993 ft | 173 kts | 264° |
| 2026-05-03 21:35 | 48.38472 | 12.04940 | 3989 ft | 171 kts | 263° |
| 2026-05-03 21:35 | 48.38351 | 12.03527 | 3989 ft | 170 kts | 264° |
| 2026-05-03 21:35 | 48.38215 | 12.01769 | 3964 ft | 169 kts | 265° |
| 2026-05-03 21:36 | 48.38066 | 12.00014 | 3785 ft | 168 kts | 264° |
| 2026-05-03 21:36 | 48.37921 | 11.98290 | 3552 ft | 167 kts | 265° |
| 2026-05-03 21:36 | 48.37790 | 11.96558 | 3345 ft | 164 kts | 265° |
| 2026-05-03 21:36 | 48.37665 | 11.94932 | 3122 ft | 150 kts | 266° |
| 2026-05-03 21:37 | 48.37548 | 11.93409 | 2939 ft | 145 kts | 266° |
| 2026-05-03 21:37 | 48.37434 | 11.91902 | 2756 ft | 143 kts | 266° |
| 2026-05-03 21:37 | 48.37324 | 11.90465 | 2562 ft | 133 kts | 266° |
| 2026-05-03 21:37 | 48.37220 | 11.89099 | 2394 ft | 131 kts | 266° |
| 2026-05-03 21:38 | 48.37117 | 11.87729 | 2218 ft | 133 kts | 264° |
| 2026-05-03 21:38 | 48.37011 | 11.86353 | 2051 ft | 135 kts | 264° |
| 2026-05-03 21:38 | 48.36904 | 11.84946 | 1866 ft | 135 kts | 264° |
| 2026-05-03 21:38 | 48.36791 | 11.83556 | 1712 ft | 134 kts | 263° |
| 2026-05-03 21:39 | 48.36681 | 11.82138 | 1556 ft | 139 kts | 264° |
| 2026-05-03 21:39 | 48.36580 | 11.80717 | 1476 ft | 120 kts | 264° |
| 2026-05-03 21:39 | 48.36507 | 11.79910 | 1479 ft | 44 kts | 254° |
| 2026-05-03 21:39 | 48.36375 | 11.79547 | 1479 ft | 38 kts | 233° |
| 2026-05-03 21:40 | 48.36235 | 11.79311 | 1480 ft | 23 kts | 198° |
| 2026-05-03 21:40 | 48.36078 | 11.79320 | 1480 ft | 23 kts | 173° |
| 2026-05-03 21:40 | 48.35930 | 11.79361 | 1476 ft | 15 kts | 145° |
| 2026-05-03 21:40 | 48.35872 | 11.79433 | 1479 ft | 17 kts | 151° |
| 2026-05-03 21:41 | 48.35751 | 11.79475 | 1483 ft | 19 kts | 175° |
| 2026-05-03 21:41 | 48.35610 | 11.79496 | 1484 ft | 22 kts | 173° |
| 2026-05-03 21:41 | 48.35492 | 11.79526 | 1476 ft | 11 kts | 148° |
| 2026-05-03 21:41 | 48.35463 | 11.79635 | 1482 ft | 13 kts | 91° |
| 2026-05-03 21:42 | 48.35468 | 11.79724 | 1489 ft | 3 kts | 83° |
| 2026-05-03 21:42 | 48.35468 | 11.79732 | 1488 ft | 0 kts | 83° |